Weather at Mostowo Highway Strip

Public forecast

Using degrees Celsius for public forecast. Weather courtesy of forecast.io.

Closest aviation weather report (METAR) to Mostowo Highway Strip

Closest report is Szczecin-Goleniów "Solidarność" Airport, 64.8 nm (120.1 km) WSW. Retrieved 2021/06/13 16:30 UTC (27 minutes ago):

EPSC 131630Z 32012KT 9999 SCT039 17/08 Q1023

Closest aviation forecast (TAF) to Mostowo Highway Strip

Closest forecast is Szczecin-Goleniów "Solidarność" Airport, 64.8 nm (120.1 km) WSW. Retrieved 2021/06/13 12:33 UTC (4 hours ago):

TAF EPSC 131130Z 1312/1412 29015KT 9999 SCT030 TEMPO 1312/1318 33020G30KT BECMG 1318/1321 27005KT